Time;durP1;ratioP1;P1;durP2;ratioP2;P2;SDS_P1;SDS_P2;PMS_P1;PMS_P2;Temp;Humidity;BMP_temperature;BMP_pressure;BME280_temperature;BME280_humidity;BME280_pressure;Samples;Min_cycle;Max_cycle;Signal;HPM_P1;HPM_P2
2023/08/29 00:01:19;;;;;;;9.33;8.63;;;13.20;86.40;;;;;;5095647;28;20178;-92
2023/08/29 00:03:45;;;;;;;9.67;8.97;;;13.10;86.40;;;;;;5095512;28;20187;-92
2023/08/29 00:06:11;;;;;;;9.80;9.10;;;13.10;86.20;;;;;;5095519;28;20201;-92
2023/08/29 00:08:37;;;;;;;10.03;9.37;;;13.10;86.10;;;;;;5095663;28;20681;-92
2023/08/29 00:11:02;;;;;;;10.43;9.50;;;13.10;85.90;;;;;;5095420;28;20634;-92
2023/08/29 00:13:28;;;;;;;10.07;9.27;;;13.00;85.60;;;;;;5096241;28;20652;-92
2023/08/29 00:15:55;;;;;;;10.53;9.67;;;12.90;85.60;;;;;;5095528;28;20199;-92
2023/08/29 00:18:21;;;;;;;10.20;9.50;;;12.90;85.50;;;;;;5096414;28;20561;-93
2023/08/29 00:20:48;;;;;;;10.77;10.07;;;12.90;85.50;;;;;;5097202;28;20209;-94
2023/08/29 00:23:14;;;;;;;10.50;9.80;;;12.90;85.30;;;;;;5116221;28;20186;-94
2023/08/29 00:25:40;;;;;;;10.70;9.57;;;12.90;85.30;;;;;;5113343;28;20281;-91
2023/08/29 00:28:07;;;;;;;10.50;9.80;;;12.90;85.40;;;;;;5103810;28;20206;-93
2023/08/29 00:30:35;;;;;;;10.03;9.23;;;12.90;85.40;;;;;;5100093;28;20202;-92
2023/08/29 00:33:01;;;;;;;10.60;9.67;;;12.80;85.40;;;;;;5103018;28;20262;-93
2023/08/29 00:35:26;;;;;;;10.73;9.83;;;12.90;85.40;;;;;;5098626;28;20214;-92
2023/08/29 00:37:52;;;;;;;10.37;9.47;;;12.90;85.40;;;;;;5096769;28;20257;-92
2023/08/29 00:40:17;;;;;;;10.23;9.63;;;12.80;85.40;;;;;;5094824;28;20199;-92
2023/08/29 00:42:43;;;;;;;9.90;9.20;;;12.80;85.40;;;;;;5095097;28;20186;-92
2023/08/29 00:45:09;;;;;;;11.33;10.27;;;12.80;85.50;;;;;;5094722;28;20237;-92
2023/08/29 00:47:35;;;;;;;9.60;8.83;;;12.80;85.60;;;;;;5094900;28;20207;-92
2023/08/29 00:50:01;;;;;;;8.80;8.30;;;12.70;85.60;;;;;;5094649;28;20175;-92
2023/08/29 00:52:27;;;;;;;9.23;8.63;;;12.70;85.60;;;;;;5094930;28;20179;-92
2023/08/29 00:54:52;;;;;;;8.47;7.97;;;12.70;85.60;;;;;;5095068;28;20202;-92
2023/08/29 00:57:18;;;;;;;8.73;8.20;;;12.60;85.60;;;;;;5094858;28;20654;-92
2023/08/29 00:59:44;;;;;;;9.10;8.50;;;12.60;85.60;;;;;;5094557;28;20212;-92
2023/08/29 01:02:10;;;;;;;9.23;8.63;;;12.60;85.60;;;;;;5096975;28;20182;-92
2023/08/29 01:04:35;;;;;;;8.80;8.20;;;12.50;85.60;;;;;;5094551;28;20266;-92
2023/08/29 01:07:01;;;;;;;8.50;8.00;;;12.50;85.70;;;;;;5095305;28;20293;-92
2023/08/29 01:09:27;;;;;;;9.40;8.80;;;12.50;85.60;;;;;;5094535;28;20171;-93
2023/08/29 01:12:09;;;;;;;8.70;8.20;;;12.50;85.60;;;;;;5094534;28;20171;-92
2023/08/29 01:14:49;;;;;;;8.63;8.13;;;12.40;85.60;;;;;;5094752;28;20163;-92
2023/08/29 01:17:30;;;;;;;9.30;8.70;;;12.30;85.50;;;;;;5094805;28;20610;-92
2023/08/29 01:19:56;;;;;;;9.83;9.00;;;12.30;85.50;;;;;;5094419;28;20173;-92
2023/08/29 01:22:31;;;;;;;9.97;9.20;;;12.30;85.50;;;;;;5094040;28;20174;-92
2023/08/29 01:25:00;;;;;;;9.57;8.87;;;12.20;85.40;;;;;;5094275;28;20277;-92
2023/08/29 01:27:27;;;;;;;9.50;8.90;;;12.20;85.70;;;;;;5094400;28;20609;-92
2023/08/29 01:29:53;;;;;;;9.83;9.20;;;12.20;85.80;;;;;;5095306;28;20182;-92
2023/08/29 01:32:19;;;;;;;9.70;9.00;;;12.20;85.70;;;;;;5095609;28;20173;-92
2023/08/29 01:34:46;;;;;;;10.20;9.30;;;12.20;85.70;;;;;;5095757;28;20729;-92
2023/08/29 01:37:12;;;;;;;10.27;9.40;;;12.20;85.70;;;;;;5094170;28;20178;-92
2023/08/29 01:39:38;;;;;;;9.60;9.00;;;12.20;85.80;;;;;;5094072;28;20273;-92
2023/08/29 01:42:03;;;;;;;10.17;9.37;;;12.10;85.70;;;;;;5094110;28;20216;-92
2023/08/29 01:44:29;;;;;;;9.90;9.20;;;12.10;85.80;;;;;;5094131;28;20183;-92
2023/08/29 01:46:54;;;;;;;10.00;9.30;;;12.00;85.80;;;;;;5094035;28;20549;-92
2023/08/29 01:49:20;;;;;;;18.80;17.60;;;12.00;85.90;;;;;;5095286;28;20171;-92
2023/08/29 01:51:46;;;;;;;21.90;20.33;;;12.00;85.90;;;;;;5094225;28;20666;-92
2023/08/29 01:54:11;;;;;;;25.90;24.10;;;12.00;85.90;;;;;;5094269;28;20197;-92
2023/08/29 01:56:39;;;;;;;10.77;9.73;;;12.10;85.90;;;;;;5093683;28;20206;-92
2023/08/29 01:59:06;;;;;;;10.47;9.53;;;11.90;85.80;;;;;;5093631;28;20239;-92
2023/08/29 02:01:33;;;;;;;16.60;15.50;;;12.00;85.80;;;;;;5094200;28;20174;-92
2023/08/29 02:03:59;;;;;;;21.50;20.20;;;11.90;85.70;;;;;;5094962;28;20699;-92
2023/08/29 02:06:25;;;;;;;25.20;23.50;;;11.80;85.70;;;;;;5093858;28;20253;-92
2023/08/29 02:08:50;;;;;;;10.30;9.60;;;11.80;85.70;;;;;;5094206;28;20262;-92
2023/08/29 02:11:16;;;;;;;10.20;9.50;;;11.90;85.70;;;;;;5094783;28;20653;-92
2023/08/29 02:13:41;;;;;;;21.13;19.87;;;11.80;85.60;;;;;;5093841;28;20626;-92
2023/08/29 02:16:07;;;;;;;21.63;20.30;;;11.80;85.60;;;;;;5093474;28;20195;-92
2023/08/29 02:18:32;;;;;;;24.33;22.83;;;11.80;85.60;;;;;;5093032;28;20179;-92
2023/08/29 02:20:58;;;;;;;9.40;8.67;;;11.70;85.50;;;;;;5094691;28;20185;-92
2023/08/29 02:23:23;;;;;;;10.53;9.83;;;11.70;85.50;;;;;;5094020;28;20178;-92
2023/08/29 02:26:00;;;;;;;10.37;9.63;;;11.70;85.60;;;;;;5094312;28;20207;-92
2023/08/29 02:28:26;;;;;;;10.30;9.30;;;11.60;85.60;;;;;;5095115;28;20194;-92
2023/08/29 02:30:51;;;;;;;10.00;9.20;;;11.70;85.70;;;;;;5093835;28;20185;-92
2023/08/29 02:33:17;;;;;;;10.23;9.20;;;11.70;85.70;;;;;;5093598;28;20220;-92
2023/08/29 02:35:42;;;;;;;9.73;9.13;;;11.70;85.80;;;;;;5093563;28;20289;-92
2023/08/29 02:38:09;;;;;;;9.80;8.97;;;11.70;85.70;;;;;;5093981;28;20205;-92
2023/08/29 02:40:35;;;;;;;10.43;9.73;;;11.60;85.80;;;;;;5095213;28;20263;-92
2023/08/29 02:43:00;;;;;;;9.83;9.13;;;11.50;85.90;;;;;;5095631;28;20642;-92
2023/08/29 02:45:26;;;;;;;10.40;8.90;;;11.50;85.90;;;;;;5095008;28;20204;-92
2023/08/29 02:47:51;;;;;;;9.80;9.20;;;11.50;86.00;;;;;;5094455;28;20689;-92
2023/08/29 02:50:17;;;;;;;9.20;8.70;;;11.50;86.10;;;;;;5094406;28;20645;-92
2023/08/29 02:52:42;;;;;;;10.63;9.43;;;11.50;86.20;;;;;;5094492;28;20189;-92
2023/08/29 02:55:08;;;;;;;27.60;9.70;;;11.50;86.30;;;;;;5094852;28;20244;-92
2023/08/29 02:57:34;;;;;;;10.40;9.50;;;11.50;86.50;;;;;;5095101;28;20100;-92
2023/08/29 02:59:59;;;;;;;9.20;8.50;;;11.50;86.80;;;;;;5094471;28;20210;-91
2023/08/29 03:02:25;;;;;;;9.60;9.00;;;11.50;86.90;;;;;;5094586;28;20664;-92
2023/08/29 03:04:50;;;;;;;10.13;9.43;;;11.50;86.80;;;;;;5097489;28;20191;-92
2023/08/29 03:07:16;;;;;;;9.70;9.00;;;11.30;87.00;;;;;;5095199;28;20199;-92
2023/08/29 03:09:42;;;;;;;9.63;9.03;;;11.20;87.30;;;;;;5096543;28;20253;-92
2023/08/29 03:12:07;;;;;;;9.27;8.67;;;11.20;87.50;;;;;;5096084;28;20187;-92
2023/08/29 03:14:33;;;;;;;9.40;8.80;;;11.20;87.60;;;;;;5095902;28;20167;-92
2023/08/29 03:16:59;;;;;;;9.67;9.00;;;11.20;87.60;;;;;;5095034;28;20171;-92
2023/08/29 03:19:24;;;;;;;8.90;8.40;;;11.20;87.50;;;;;;5095124;28;20205;-92
2023/08/29 03:21:50;;;;;;;9.53;8.87;;;11.20;87.50;;;;;;5096431;28;20221;-92
2023/08/29 03:24:15;;;;;;;9.27;8.67;;;11.20;87.30;;;;;;5096271;28;20171;-92
2023/08/29 03:26:41;;;;;;;10.00;9.40;;;11.20;87.30;;;;;;5096156;28;20195;-92
2023/08/29 03:29:06;;;;;;;9.37;8.77;;;11.20;87.30;;;;;;5096475;28;20210;-92
2023/08/29 03:31:32;;;;;;;8.90;8.40;;;11.20;87.30;;;;;;5099058;28;20529;-92
2023/08/29 03:33:57;;;;;;;9.00;8.40;;;11.20;87.20;;;;;;5100765;28;20171;-92
2023/08/29 03:36:23;;;;;;;8.93;8.43;;;11.10;87.00;;;;;;5100240;28;20221;-92
2023/08/29 03:38:48;;;;;;;9.60;8.73;;;11.10;87.00;;;;;;5100061;28;20179;-92
2023/08/29 03:41:14;;;;;;;9.30;8.63;;;11.10;87.00;;;;;;5100945;28;20210;-92
2023/08/29 03:43:40;;;;;;;9.17;8.67;;;11.00;86.90;;;;;;5101969;28;20602;-92
2023/08/29 03:46:07;;;;;;;10.13;9.33;;;11.00;86.90;;;;;;5100964;28;20289;-92
2023/08/29 03:48:34;;;;;;;11.37;10.30;;;11.10;86.90;;;;;;5100278;28;20297;-92
2023/08/29 03:51:06;;;;;;;10.73;9.77;;;11.10;86.80;;;;;;5101708;28;20805;-92
2023/08/29 03:53:36;;;;;;;11.03;10.13;;;11.10;86.80;;;;;;5101137;28;20171;-92
2023/08/29 03:56:05;;;;;;;10.53;9.70;;;11.00;86.80;;;;;;5100654;28;20210;-92
2023/08/29 03:58:31;;;;;;;10.60;9.77;;;11.00;86.80;;;;;;5097639;28;20236;-92
2023/08/29 04:00:58;;;;;;;10.93;10.10;;;11.00;86.80;;;;;;5099497;28;20179;-92
2023/08/29 04:03:24;;;;;;;11.67;10.43;;;11.10;86.90;;;;;;5101314;28;20560;-92
2023/08/29 04:05:49;;;;;;;11.60;10.80;;;11.10;86.90;;;;;;5099985;28;20199;-92
2023/08/29 04:08:15;;;;;;;12.20;10.87;;;11.10;87.00;;;;;;5096748;28;20269;-92
2023/08/29 04:10:41;;;;;;;11.67;10.87;;;11.10;87.00;;;;;;5098287;28;20242;-93
2023/08/29 04:13:08;;;;;;;11.23;10.43;;;11.10;87.00;;;;;;5100558;28;20175;-92
2023/08/29 04:15:34;;;;;;;10.87;9.90;;;11.10;87.30;;;;;;5100227;28;20190;-92
2023/08/29 04:18:00;;;;;;;;;;;11.00;87.50;;;;;;5100765;28;20622;-92
2023/08/29 04:20:27;;;;;;;11.77;10.83;;;11.00;87.60;;;;;;5103604;28;20209;-92
2023/08/29 04:22:53;;;;;;;11.33;10.33;;;10.90;87.70;;;;;;5104054;28;20179;-92
2023/08/29 04:25:19;;;;;;;10.10;9.20;;;10.80;87.90;;;;;;5105789;28;20701;-92
2023/08/29 04:27:46;;;;;;;10.33;8.90;;;10.70;88.10;;;;;;5102611;28;20194;-92
2023/08/29 04:30:12;;;;;;;10.20;9.27;;;10.70;88.20;;;;;;5105525;28;20170;-92
2023/08/29 04:32:37;;;;;;;10.37;9.43;;;10.70;88.30;;;;;;5103125;28;20177;-92
2023/08/29 04:35:06;;;;;;;9.57;8.50;;;10.70;88.40;;;;;;5101674;28;20195;-92
2023/08/29 04:37:35;;;;;;;8.93;8.33;;;10.70;88.30;;;;;;5100313;28;20645;-92
2023/08/29 04:40:03;;;;;;;10.23;9.47;;;10.70;88.20;;;;;;5098387;28;20189;-92
2023/08/29 04:42:28;;;;;;;9.60;8.70;;;10.80;88.30;;;;;;5100088;28;20266;-92
2023/08/29 04:44:54;;;;;;;9.53;8.93;;;10.80;88.30;;;;;;5101043;28;20241;-92
2023/08/29 04:47:20;;;;;;;9.90;8.90;;;10.80;88.40;;;;;;5098968;28;20190;-92
2023/08/29 04:49:46;;;;;;;9.77;8.97;;;10.90;88.30;;;;;;5100687;28;20261;-92
2023/08/29 04:52:12;;;;;;;10.87;9.77;;;10.80;88.20;;;;;;5100464;28;20206;-92
2023/08/29 04:54:37;;;;;;;10.27;9.57;;;10.90;88.20;;;;;;5100899;28;20269;-92
2023/08/29 04:57:04;;;;;;;9.77;9.07;;;10.90;88.20;;;;;;5100138;28;20202;-92
2023/08/29 04:59:29;;;;;;;10.57;9.50;;;10.90;88.20;;;;;;5100307;28;20257;-92
2023/08/29 05:01:55;;;;;;;9.67;8.73;;;10.90;88.20;;;;;;5099923;28;20259;-92
2023/08/29 05:04:21;;;;;;;10.87;8.97;;;10.90;88.30;;;;;;5101610;28;20323;-92
2023/08/29 05:06:46;;;;;;;10.73;9.73;;;10.90;88.20;;;;;;5100792;28;20553;-92
2023/08/29 05:09:12;;;;;;;11.03;10.23;;;10.90;88.20;;;;;;5103331;28;20202;-93
2023/08/29 05:11:37;;;;;;;11.67;10.97;;;10.90;88.30;;;;;;5101288;28;20177;-92
2023/08/29 05:14:03;;;;;;;11.70;10.67;;;10.80;88.60;;;;;;5101547;28;20174;-92
2023/08/29 05:16:29;;;;;;;11.77;10.97;;;10.80;89.00;;;;;;5102332;28;20271;-93
2023/08/29 05:18:54;;;;;;;13.07;11.97;;;10.80;89.20;;;;;;5104822;28;20549;-93
2023/08/29 05:21:20;;;;;;;13.47;12.13;;;10.80;89.50;;;;;;5103976;28;20189;-92
2023/08/29 05:23:45;;;;;;;14.73;13.53;;;10.90;89.80;;;;;;5100810;28;20183;-92
2023/08/29 05:26:11;;;;;;;18.30;17.00;;;11.00;90.00;;;;;;5102978;28;20214;-92
2023/08/29 05:28:36;;;;;;;18.33;16.73;;;10.90;90.00;;;;;;5100745;28;20670;-92
2023/08/29 05:31:02;;;;;;;17.70;16.50;;;11.00;90.10;;;;;;5102014;28;20167;-93
2023/08/29 05:33:27;;;;;;;17.27;15.67;;;11.10;90.10;;;;;;5105036;28;20175;-92
2023/08/29 05:35:53;;;;;;;18.17;16.87;;;11.20;90.10;;;;;;5100917;28;20293;-89
2023/08/29 05:38:18;;;;;;;17.77;16.57;;;11.20;90.10;;;;;;5098932;28;20190;-92
2023/08/29 05:40:44;;;;;;;18.10;16.70;;;11.30;90.20;;;;;;5098820;28;20182;-92
2023/08/29 05:43:09;;;;;;;17.73;16.50;;;11.30;90.10;;;;;;5101711;28;20209;-93
2023/08/29 05:45:35;;;;;;;18.57;16.37;;;11.30;90.10;;;;;;5101382;28;20198;-92
2023/08/29 05:48:00;;;;;;;17.03;15.63;;;11.40;90.20;;;;;;5100460;28;20267;-92
2023/08/29 05:50:26;;;;;;;15.87;14.77;;;11.50;90.20;;;;;;5103298;28;20241;-92
2023/08/29 05:52:52;;;;;;;18.13;16.67;;;11.60;90.30;;;;;;5104032;28;20265;-92
2023/08/29 05:55:18;;;;;;;19.27;17.63;;;11.60;90.40;;;;;;5101908;28;20269;-92
2023/08/29 05:57:43;;;;;;;19.37;17.77;;;11.70;90.60;;;;;;5104821;28;20196;-92
2023/08/29 06:00:13;;;;;;;20.90;19.27;;;11.70;90.80;;;;;;5102053;28;20175;-93
2023/08/29 06:02:39;;;;;;;12.80;11.63;;;11.70;90.90;;;;;;5103366;28;20646;-92
2023/08/29 06:05:06;;;;;;;13.67;12.33;;;11.80;91.00;;;;;;5104108;28;20202;-92
2023/08/29 06:07:32;;;;;;;19.10;17.70;;;11.80;91.20;;;;;;5102306;28;20704;-92
2023/08/29 06:09:57;;;;;;;19.93;18.23;;;11.80;91.30;;;;;;5104424;28;20170;-93
2023/08/29 06:12:23;;;;;;;19.30;17.60;;;11.90;91.30;;;;;;5102385;28;20167;-93
2023/08/29 06:14:48;;;;;;;14.80;11.93;;;11.90;91.40;;;;;;5100901;28;20277;-92
2023/08/29 06:17:14;;;;;;;14.80;12.90;;;12.10;91.40;;;;;;5101421;28;20642;-93
2023/08/29 06:19:39;;;;;;;20.03;18.67;;;12.20;91.70;;;;;;5103501;28;20666;-93
2023/08/29 06:22:06;;;;;;;26.57;18.70;;;12.30;91.80;;;;;;5103011;28;20224;-93
2023/08/29 06:24:32;;;;;;;21.20;19.70;;;12.40;92.00;;;;;;5103469;28;20186;-93
2023/08/29 06:26:57;;;;;;;14.87;13.67;;;12.50;92.20;;;;;;5102332;28;20676;-92
2023/08/29 06:29:23;;;;;;;16.87;14.57;;;12.70;92.30;;;;;;5099727;28;20175;-93
2023/08/29 06:31:49;;;;;;;15.83;14.23;;;12.70;92.40;;;;;;5101205;28;20174;-93
2023/08/29 06:34:14;;;;;;;16.20;14.60;;;12.80;92.40;;;;;;5101513;28;20234;-93
2023/08/29 06:36:41;;;;;;;15.47;14.20;;;12.90;92.60;;;;;;5102636;28;20735;-92
2023/08/29 06:39:08;;;;;;;15.77;14.17;;;13.00;92.70;;;;;;5102942;28;20178;-93
2023/08/29 06:41:33;;;;;;;16.47;14.87;;;13.20;92.70;;;;;;5104224;28;20237;-93
2023/08/29 06:43:59;;;;;;;17.03;15.13;;;13.20;92.70;;;;;;5104658;28;20178;-93
2023/08/29 06:46:25;;;;;;;20.10;17.73;;;13.30;92.70;;;;;;5103978;28;20191;-93
2023/08/29 06:48:50;;;;;;;18.83;17.00;;;13.50;92.80;;;;;;5106566;28;20198;-93
2023/08/29 06:51:16;;;;;;;19.80;17.53;;;13.70;93.00;;;;;;5105643;28;20174;-92
2023/08/29 06:53:41;;;;;;;19.37;17.57;;;13.90;93.20;;;;;;5103302;28;20201;-92
2023/08/29 06:56:07;;;;;;;19.07;17.23;;;14.10;93.20;;;;;;5103157;28;20210;-92
2023/08/29 06:58:32;;;;;;;19.23;17.53;;;14.20;93.20;;;;;;5105146;28;20243;-93
2023/08/29 07:00:58;;;;;;;18.45;16.67;;;14.20;93.30;;;;;;5104404;28;20190;-93
2023/08/29 07:03:23;;;;;;;17.98;15.95;;;14.20;93.30;;;;;;5105090;28;20605;-92
2023/08/29 07:05:49;;;;;;;19.95;15.50;;;14.30;93.30;;;;;;5101371;28;20202;-91
2023/08/29 07:08:15;;;;;;;17.05;15.25;;;14.30;93.30;;;;;;5096149;28;20194;-91
2023/08/29 07:10:40;;;;;;;15.35;13.95;;;14.40;93.30;;;;;;5098126;28;20170;-91
2023/08/29 07:13:06;;;;;;;17.55;14.13;;;14.40;93.30;;;;;;5095699;28;20168;-91
2023/08/29 07:15:31;;;;;;;16.23;14.43;;;14.50;93.40;;;;;;5095546;28;20216;-91
2023/08/29 07:17:57;;;;;;;16.48;14.38;;;14.50;93.40;;;;;;5097908;28;20201;-91
2023/08/29 07:20:22;;;;;;;15.68;14.23;;;14.70;93.40;;;;;;5096555;28;20174;-92
2023/08/29 07:22:48;;;;;;;14.07;12.60;;;14.80;93.40;;;;;;5098793;28;20178;-92
2023/08/29 07:25:15;;;;;;;15.00;11.70;;;14.80;93.30;;;;;;5098484;28;20198;-92
2023/08/29 07:27:41;;;;;;;16.80;12.77;;;14.80;93.30;;;;;;5097499;28;20198;-92
2023/08/29 07:30:10;;;;;;;11.60;10.50;;;14.90;93.30;;;;;;5098297;28;20174;-92
2023/08/29 07:32:36;;;;;;;13.10;11.88;;;15.10;93.30;;;;;;5098388;28;20170;-92
2023/08/29 07:35:02;;;;;;;13.98;11.57;;;15.20;93.30;;;;;;5098901;28;20221;-92
2023/08/29 07:37:28;;;;;;;13.15;11.60;;;15.20;93.00;;;;;;5098677;28;20209;-92
2023/08/29 07:39:53;;;;;;;11.85;10.73;;;15.20;93.10;;;;;;5099291;28;20213;-92
2023/08/29 07:42:19;;;;;;;11.73;10.82;;;15.30;93.00;;;;;;5099230;28;20183;-92
2023/08/29 07:44:45;;;;;;;17.15;10.82;;;15.30;92.70;;;;;;5099069;28;20194;-92
2023/08/29 07:47:10;;;;;;;12.63;10.70;;;15.40;92.70;;;;;;5098382;28;20174;-92
2023/08/29 07:49:36;;;;;;;12.02;10.82;;;15.40;92.60;;;;;;5097869;28;20206;-92
2023/08/29 07:52:01;;;;;;;10.50;9.52;;;15.50;92.70;;;;;;5098141;28;20175;-92
2023/08/29 07:54:28;;;;;;;9.88;9.07;;;15.60;92.60;;;;;;5098552;28;20171;-92
2023/08/29 07:56:53;;;;;;;9.68;8.98;;;15.60;92.40;;;;;;5098538;28;20685;-92
2023/08/29 07:59:20;;;;;;;10.48;9.40;;;15.60;92.20;;;;;;5098595;28;20204;-92
2023/08/29 08:01:46;;;;;;;10.13;9.43;;;15.50;91.70;;;;;;5097759;28;20167;-92
2023/08/29 08:04:12;;;;;;;10.27;9.50;;;15.50;91.40;;;;;;5097813;28;20175;-92
2023/08/29 08:06:38;;;;;;;11.38;10.23;;;15.50;90.70;;;;;;5097590;28;20201;-92
2023/08/29 08:09:04;;;;;;;11.35;10.30;;;15.60;90.10;;;;;;5097959;28;20197;-92
2023/08/29 08:11:30;;;;;;;10.70;9.90;;;15.60;89.90;;;;;;5097074;28;20600;-89
2023/08/29 08:13:56;;;;;;;11.57;10.75;;;15.70;89.60;;;;;;5095940;28;20171;-93
2023/08/29 08:16:21;;;;;;;11.88;10.85;;;15.70;89.50;;;;;;5095175;28;20678;-92
2023/08/29 08:18:47;;;;;;;12.13;11.10;;;15.80;89.20;;;;;;5096348;28;20181;-92
2023/08/29 08:21:12;;;;;;;11.82;10.98;;;15.80;88.90;;;;;;5097919;28;20265;-93
2023/08/29 08:23:38;;;;;;;12.57;11.55;;;15.80;88.50;;;;;;5099710;28;20182;-92
2023/08/29 08:26:04;;;;;;;13.13;11.80;;;15.90;88.10;;;;;;5098570;28;20195;-92
2023/08/29 08:28:29;;;;;;;12.15;11.13;;;16.00;88.00;;;;;;5099296;28;20205;-92
2023/08/29 08:30:55;;;;;;;12.27;10.90;;;16.00;87.40;;;;;;5098051;28;20243;-92
2023/08/29 08:33:20;;;;;;;12.57;10.60;;;16.00;87.60;;;;;;5098569;28;20171;-93
2023/08/29 08:35:46;;;;;;;11.93;11.00;;;16.20;87.80;;;;;;5096730;28;20197;-92
2023/08/29 08:38:11;;;;;;;12.07;10.90;;;16.30;87.80;;;;;;5097807;28;20177;-93
2023/08/29 08:40:38;;;;;;;11.35;10.43;;;16.30;87.30;;;;;;5097159;28;20190;-92
2023/08/29 08:43:05;;;;;;;12.80;11.80;;;16.40;87.50;;;;;;5096606;28;20178;-92
2023/08/29 08:45:34;;;;;;;13.38;12.27;;;16.50;87.10;;;;;;5094931;28;20681;-91
2023/08/29 08:48:01;;;;;;;13.68;12.38;;;16.50;86.30;;;;;;5095899;28;20194;-92
2023/08/29 08:50:27;;;;;;;14.98;13.70;;;16.40;85.00;;;;;;5094727;28;20166;-91
2023/08/29 08:52:55;;;;;;;14.10;13.13;;;16.40;84.60;;;;;;5095054;28;20171;-92
2023/08/29 08:55:21;;;;;;;12.77;11.77;;;16.60;84.90;;;;;;5094789;28;20301;-92
2023/08/29 08:57:47;;;;;;;13.25;12.32;;;16.80;85.50;;;;;;5098273;28;20155;-90
2023/08/29 09:00:13;;;;;;;13.48;12.57;;;16.90;84.70;;;;;;5094705;28;20680;-90
2023/08/29 09:02:42;;;;;;;13.48;12.50;;;17.00;84.30;;;;;;5095264;28;20183;-90
2023/08/29 09:05:08;;;;;;;13.70;12.70;;;17.10;83.70;;;;;;5095806;28;20195;-93
2023/08/29 09:07:40;;;;;;;13.05;12.07;;;17.10;83.30;;;;;;5116941;28;20186;-94
2023/08/29 09:10:17;;;;;;;13.43;12.43;;;17.20;83.20;;;;;;5098503;28;20167;-93
2023/08/29 09:12:48;;;;;;;13.30;12.27;;;17.30;83.00;;;;;;5106233;28;20638;-93
2023/08/29 09:15:17;;;;;;;13.45;12.18;;;17.40;83.10;;;;;;5103896;28;20195;-92
2023/08/29 09:17:45;;;;;;;14.45;13.30;;;17.50;82.80;;;;;;5104146;28;20171;-93
2023/08/29 09:20:11;;;;;;;14.50;13.50;;;17.50;81.60;;;;;;5106062;28;20228;-90
2023/08/29 09:22:40;;;;;;;15.00;14.00;;;17.40;79.80;;;;;;5097783;28;20170;-93
2023/08/29 09:25:06;;;;;;;15.70;14.57;;;17.40;79.30;;;;;;5098179;28;20205;-93
2023/08/29 09:27:48;;;;;;;15.75;14.52;;;17.40;79.70;;;;;;5096675;28;20190;-93
2023/08/29 09:30:17;;;;;;;16.30;15.13;;;17.40;80.20;;;;;;5096770;28;20220;-93
2023/08/29 09:32:45;;;;;;;15.38;14.18;;;17.30;79.60;;;;;;5098218;28;20172;-93
2023/08/29 09:35:15;;;;;;;15.15;14.15;;;17.50;80.90;;;;;;5097583;28;20265;-93
2023/08/29 09:37:47;;;;;;;14.43;13.25;;;17.50;80.50;;;;;;5104057;28;20545;-92
2023/08/29 09:40:17;;;;;;;14.68;13.60;;;17.70;80.00;;;;;;5104657;28;20167;-94
2023/08/29 09:42:52;;;;;;;15.40;14.13;;;17.70;79.10;;;;;;5109475;28;20163;-93
2023/08/29 09:45:18;;;;;;;15.70;14.40;;;17.80;79.10;;;;;;5104976;28;20280;-93
2023/08/29 09:47:43;;;;;;;15.95;14.95;;;17.70;78.50;;;;;;5101125;28;20665;-93
2023/08/29 09:50:09;;;;;;;15.35;14.40;;;17.70;78.10;;;;;;5112183;28;20270;-93
2023/08/29 09:52:35;;;;;;;16.17;14.80;;;17.70;77.30;;;;;;5111910;28;20167;-93
2023/08/29 09:55:02;;;;;;;16.13;15.02;;;17.70;77.50;;;;;;5107007;28;20202;-92
2023/08/29 09:57:31;;;;;;;15.60;14.50;;;17.70;76.20;;;;;;5098219;28;20174;-93
2023/08/29 09:59:58;;;;;;;15.75;14.65;;;17.60;76.60;;;;;;5096313;28;20185;-91
2023/08/29 10:02:26;;;;;;;17.15;15.70;;;17.70;76.10;;;;;;5104567;28;20238;-93
2023/08/29 10:04:55;;;;;;;15.57;14.50;;;17.70;76.30;;;;;;5099462;28;20750;-92
2023/08/29 10:07:26;;;;;;;14.98;13.98;;;17.70;75.60;;;;;;5093817;28;20202;-91
2023/08/29 10:09:52;;;;;;;14.77;13.77;;;17.90;76.90;;;;;;5094141;28;20199;-94
2023/08/29 10:12:19;;;;;;;15.18;14.13;;;18.10;75.80;;;;;;5093525;28;20170;-92
2023/08/29 10:14:45;;;;;;;15.60;14.38;;;18.20;75.00;;;;;;5094318;28;20198;-92
2023/08/29 10:17:12;;;;;;;15.73;14.68;;;18.40;75.10;;;;;;5093430;28;20617;-92
2023/08/29 10:19:39;;;;;;;15.45;14.40;;;18.50;73.80;;;;;;5100133;28;20166;-94
2023/08/29 10:22:08;;;;;;;15.70;14.65;;;18.70;74.40;;;;;;5096776;28;20178;-93
2023/08/29 10:24:36;;;;;;;15.98;14.88;;;18.90;73.80;;;;;;5093471;28;20166;-92
2023/08/29 10:27:03;;;;;;;15.57;14.48;;;19.20;73.30;;;;;;5093766;28;20562;-90
2023/08/29 10:29:32;;;;;;;16.30;15.30;;;19.40;73.20;;;;;;5093352;28;20174;-89
2023/08/29 10:32:00;;;;;;;17.05;15.95;;;19.80;73.30;;;;;;5093491;28;20592;-92
2023/08/29 10:34:29;;;;;;;18.55;17.35;;;20.10;71.50;;;;;;5094333;28;20170;-92
2023/08/29 10:36:56;;;;;;;17.75;16.55;;;19.60;69.00;;;;;;5093672;28;20220;-92
2023/08/29 10:39:24;;;;;;;17.52;16.30;;;20.10;70.60;;;;;;5094839;28;20198;-92
2023/08/29 10:41:54;;;;;;;18.40;17.20;;;20.20;70.30;;;;;;5098458;28;20223;-92
2023/08/29 10:44:35;;;;;;;17.13;15.68;;;20.40;68.40;;;;;;5098841;28;20689;-92
2023/08/29 10:47:35;;;;;;;18.13;16.92;;;20.20;71.20;;;;;;5098675;28;20186;-92
2023/08/29 10:50:03;;;;;;;17.73;16.52;;;19.90;69.20;;;;;;5095283;28;20304;-91
2023/08/29 10:52:41;;;;;;;18.48;17.15;;;19.70;68.10;;;;;;5098670;28;20204;-91
2023/08/29 10:55:21;;;;;;;17.20;16.02;;;19.60;70.30;;;;;;5098958;28;20279;-92
2023/08/29 10:57:47;;;;;;;18.10;16.90;;;20.10;69.40;;;;;;5099422;28;20155;-92
2023/08/29 11:00:34;;;;;;;17.20;16.10;;;20.30;69.90;;;;;;5098880;28;20665;-91
2023/08/29 11:03:00;;;;;;;17.88;16.58;;;20.20;67.00;;;;;;5098413;28;20154;-91
2023/08/29 11:05:27;;;;;;;17.52;16.42;;;20.50;68.60;;;;;;5097296;28;20263;-91
2023/08/29 11:07:53;;;;;;;18.55;17.25;;;20.30;66.60;;;;;;5097162;28;20205;-91
2023/08/29 11:10:22;;;;;;;18.02;16.83;;;20.20;68.10;;;;;;5098392;28;20211;-91
2023/08/29 11:13:09;;;;;;;19.33;18.02;;;20.30;67.40;;;;;;5098492;28;20245;-92
2023/08/29 11:15:54;;;;;;;18.40;17.15;;;19.70;66.00;;;;;;5098329;28;20187;-91
2023/08/29 11:18:20;;;;;;;18.75;17.40;;;19.90;68.10;;;;;;5098236;28;20181;-91
2023/08/29 11:20:46;;;;;;;18.48;17.27;;;20.30;67.90;;;;;;5098136;28;20171;-91
2023/08/29 11:23:13;;;;;;;18.50;17.30;;;20.60;64.60;;;;;;5096892;28;20269;-91
2023/08/29 11:25:38;;;;;;;20.08;18.67;;;20.70;64.00;;;;;;5098371;28;20201;-91
2023/08/29 11:28:05;;;;;;;19.08;17.88;;;20.90;63.00;;;;;;5097830;28;20191;-90
2023/08/29 11:30:32;;;;;;;19.20;18.00;;;20.90;63.10;;;;;;5097879;28;20650;-90
2023/08/29 11:32:58;;;;;;;19.67;18.45;;;21.20;63.20;;;;;;5098203;28;20537;-90
2023/08/29 11:35:23;;;;;;;19.73;18.33;;;21.40;62.90;;;;;;5097773;28;20202;-90
2023/08/29 11:37:49;;;;;;;19.05;17.85;;;21.80;62.10;;;;;;5097604;28;20171;-90
2023/08/29 11:40:19;;;;;;;18.13;16.95;;;21.80;59.50;;;;;;5097572;28;20178;-90
2023/08/29 11:42:45;;;;;;;17.95;16.75;;;21.90;59.30;;;;;;5097663;28;20159;-90
2023/08/29 11:45:10;;;;;;;18.08;16.88;;;21.70;57.10;;;;;;5098430;28;20195;-90
2023/08/29 11:47:36;;;;;;;18.02;16.92;;;21.40;57.60;;;;;;5097690;28;20335;-90
2023/08/29 11:50:05;;;;;;;19.05;17.80;;;21.30;59.10;;;;;;5096221;28;20175;-90
2023/08/29 11:52:31;;;;;;;19.95;18.70;;;21.30;60.30;;;;;;5096887;28;20182;-90
2023/08/29 11:54:56;;;;;;;18.60;17.40;;;21.50;62.80;;;;;;5098574;28;20186;-90
2023/08/29 11:57:23;;;;;;;18.58;17.30;;;21.40;60.50;;;;;;5098119;28;20699;-90
2023/08/29 11:59:52;;;;;;;19.25;17.92;;;21.70;61.60;;;;;;5098338;28;20289;-90
2023/08/29 12:02:21;;;;;;;19.10;17.90;;;21.80;60.80;;;;;;5098215;28;20198;-90
2023/08/29 12:04:48;;;;;;;19.35;18.13;;;21.60;61.60;;;;;;5098086;28;20670;-90
2023/08/29 12:07:14;;;;;;;18.80;17.50;;;21.20;58.60;;;;;;5098155;28;20220;-90
2023/08/29 12:09:42;;;;;;;19.50;18.10;;;20.80;62.10;;;;;;5098331;28;20174;-90
2023/08/29 12:12:26;;;;;;;18.77;17.63;;;21.40;63.30;;;;;;5098599;28;20190;-89
2023/08/29 12:14:51;;;;;;;18.05;16.85;;;21.60;59.60;;;;;;5098211;28;20218;-89
2023/08/29 12:17:18;;;;;;;18.40;17.20;;;21.40;56.90;;;;;;5098291;28;20167;-90
2023/08/29 12:19:44;;;;;;;18.13;16.92;;;21.80;60.50;;;;;;5096471;28;20192;-90
2023/08/29 12:22:10;;;;;;;18.73;17.45;;;22.30;59.50;;;;;;5096300;28;20264;-89
2023/08/29 12:24:35;;;;;;;18.02;16.92;;;22.70;59.20;;;;;;5096974;28;20170;-91
2023/08/29 12:27:01;;;;;;;18.05;16.80;;;22.70;54.80;;;;;;5097026;28;20236;-90
2023/08/29 12:29:26;;;;;;;18.50;17.10;;;22.40;54.70;;;;;;5097011;28;20285;-90
2023/08/29 12:31:52;;;;;;;18.70;17.40;;;22.30;56.50;;;;;;5097342;28;20256;-90